createdAt,value
2022-08-03T00:01:27.086Z,4.10
2022-08-03T00:03:53.778Z,3.92
2022-08-03T00:06:20.418Z,4.03
2022-08-03T00:08:47.075Z,4.15
2022-08-03T00:11:13.731Z,3.95
2022-08-03T00:13:40.368Z,4.18
2022-08-03T00:16:07.110Z,4.07
2022-08-03T00:18:33.782Z,3.70
2022-08-03T00:21:00.443Z,4.10
2022-08-03T00:23:30.517Z,3.85
2022-08-03T00:26:14.788Z,4.30
2022-08-03T00:28:41.925Z,3.83
2022-08-03T00:31:08.569Z,3.95
2022-08-03T00:33:59.239Z,4.47
2022-08-03T00:36:26.918Z,4.03
2022-08-03T00:38:53.557Z,3.67
2022-08-03T00:41:20.206Z,4.03
2022-08-03T00:44:15.015Z,3.72
2022-08-03T00:46:41.686Z,4.05
2022-08-03T00:49:08.389Z,4.60
2022-08-03T00:51:35.176Z,4.03
2022-08-03T00:54:01.806Z,3.72
2022-08-03T00:56:28.506Z,4.07
2022-08-03T00:58:57.651Z,4.35
2022-08-03T01:01:26.644Z,4.38
2022-08-03T01:03:59.127Z,4.13
2022-08-03T01:06:32.425Z,4.40
2022-08-03T01:09:09.903Z,4.35
2022-08-03T01:12:00.232Z,4.20
2022-08-03T01:14:33.148Z,3.95
2022-08-03T01:17:06.860Z,4.05
2022-08-03T01:19:39.875Z,4.32
2022-08-03T01:22:52.835Z,4.45
2022-08-03T01:25:31.265Z,4.00
2022-08-03T01:28:08.104Z,3.63
2022-08-03T01:30:36.742Z,3.95
2022-08-03T01:33:15.079Z,4.32
2022-08-03T01:35:44.983Z,4.07
2022-08-03T01:38:15.552Z,4.22
2022-08-03T01:40:44.803Z,4.40
2022-08-03T01:43:15.296Z,4.22
2022-08-03T01:46:02.842Z,4.22
2022-08-03T01:49:22.944Z,4.05
2022-08-03T01:51:57.924Z,4.05
2022-08-03T01:54:36.743Z,4.20
2022-08-03T01:57:04.144Z,4.18
2022-08-03T01:59:33.794Z,5.35
2022-08-03T02:02:15.325Z,4.50
2022-08-03T02:04:48.157Z,3.80
2022-08-03T02:07:15.617Z,4.30
2022-08-03T02:09:44.506Z,4.07
2022-08-03T02:12:12.300Z,4.97
2022-08-03T02:14:41.038Z,4.57
2022-08-03T02:17:08.131Z,4.00
2022-08-03T02:19:36.971Z,5.45
2022-08-03T02:22:05.434Z,4.13
2022-08-03T02:24:32.252Z,3.90
2022-08-03T02:27:00.033Z,3.85
2022-08-03T02:29:40.050Z,4.25
2022-08-03T02:32:11.794Z,4.65
2022-08-03T02:34:42.344Z,4.38
2022-08-03T02:37:10.636Z,4.85
2022-08-03T02:39:37.813Z,4.47
2022-08-03T02:42:06.419Z,4.13
2022-08-03T02:44:33.595Z,4.38
2022-08-03T02:47:03.820Z,4.50
2022-08-03T02:49:40.995Z,4.75
2022-08-03T02:52:18.033Z,4.50
2022-08-03T02:54:46.338Z,4.32
2022-08-03T02:57:14.017Z,4.45
2022-08-03T02:59:42.730Z,4.60
2022-08-03T03:02:10.184Z,4.20
2022-08-03T03:04:36.974Z,4.05
2022-08-03T03:07:04.368Z,3.92
2022-08-03T03:09:40.269Z,4.72
2022-08-03T03:12:10.138Z,4.50
2022-08-03T03:14:37.385Z,4.53
2022-08-03T03:17:09.818Z,4.60
2022-08-03T03:19:39.672Z,5.35
2022-08-03T03:22:07.766Z,4.32
2022-08-03T03:24:36.044Z,4.50
2022-08-03T03:27:05.694Z,4.50
2022-08-03T03:29:39.462Z,4.70
2022-08-03T03:32:08.441Z,4.88
2022-08-03T03:34:39.340Z,4.55
2022-08-03T03:37:08.570Z,4.40
2022-08-03T03:39:36.424Z,4.70
2022-08-03T03:42:06.226Z,4.47
2022-08-03T03:44:38.100Z,4.72
2022-08-03T03:47:05.094Z,4.43
2022-08-03T03:49:32.459Z,4.40
2022-08-03T03:51:59.171Z,4.80
2022-08-03T03:54:29.255Z,4.57
2022-08-03T03:56:56.286Z,4.15
2022-08-03T03:59:22.955Z,4.03
2022-08-03T04:01:58.964Z,4.25
2022-08-03T04:04:44.643Z,4.20
2022-08-03T04:07:30.091Z,4.53
2022-08-03T04:10:15.736Z,4.40
2022-08-03T04:12:49.876Z,4.32
2022-08-03T04:15:19.979Z,4.70
2022-08-03T04:17:49.398Z,4.70
2022-08-03T04:20:18.389Z,4.60
2022-08-03T04:22:46.391Z,4.05
2022-08-03T04:25:18.014Z,5.03
2022-08-03T04:27:46.711Z,4.30
2022-08-03T04:30:33.766Z,4.45
2022-08-03T04:33:01.325Z,5.03
2022-08-03T04:36:01.292Z,4.82
2022-08-03T04:38:29.184Z,4.90
2022-08-03T04:40:56.586Z,4.72
2022-08-03T04:48:15.311Z,5.00
2022-08-03T04:50:42.906Z,5.15
2022-08-03T04:53:09.586Z,4.50
2022-08-03T04:55:36.584Z,5.43
2022-08-03T04:58:03.796Z,4.93
2022-08-03T05:05:01.880Z,4.90
2022-08-03T05:07:34.162Z,4.90
2022-08-03T05:10:16.139Z,5.60
2022-08-03T05:13:12.908Z,5.50
2022-08-03T05:15:43.050Z,5.47
2022-08-03T05:18:13.890Z,5.10
2022-08-03T05:20:41.287Z,5.15
2022-08-03T05:23:07.987Z,5.70
2022-08-03T05:25:34.660Z,4.80
2022-08-03T05:28:03.675Z,4.70
2022-08-03T05:30:33.807Z,5.00
2022-08-03T05:33:03.002Z,5.07
2022-08-03T05:36:00.631Z,5.07
2022-08-03T05:42:46.654Z,5.13
2022-08-03T05:45:17.856Z,4.78
2022-08-03T05:47:45.394Z,4.82
2022-08-03T05:50:13.014Z,4.70
2022-08-03T05:52:40.573Z,4.43
2022-08-03T05:55:08.094Z,4.63
2022-08-03T05:57:35.339Z,4.88
2022-08-03T06:00:07.021Z,4.70
2022-08-03T06:02:38.987Z,4.90
2022-08-03T06:05:06.270Z,4.82
2022-08-03T06:07:33.134Z,4.60
2022-08-03T06:10:36.784Z,5.13
2022-08-03T06:12:51.231Z,5.18
2022-08-03T06:15:20.627Z,5.22
2022-08-03T06:17:51.418Z,4.43
2022-08-03T06:20:19.718Z,4.75
2022-08-03T06:22:51.362Z,4.82
2022-08-03T06:25:27.261Z,5.43
2022-08-03T06:27:53.955Z,4.30
2022-08-03T06:30:21.463Z,4.72
2022-08-03T06:32:52.086Z,4.43
2022-08-03T06:35:19.538Z,4.53
2022-08-03T06:37:49.699Z,4.57
2022-08-03T06:40:28.963Z,4.55
2022-08-03T06:42:56.528Z,4.20
2022-08-03T06:45:23.242Z,5.40
2022-08-03T06:48:05.121Z,4.50
2022-08-03T06:50:34.216Z,4.80
2022-08-03T06:53:01.729Z,4.82
2022-08-03T06:55:28.735Z,4.60
2022-08-03T06:57:55.772Z,4.60
2022-08-03T07:00:27.936Z,4.00
2022-08-03T07:02:58.051Z,4.25
2022-08-03T07:05:25.077Z,4.30
2022-08-03T07:07:55.597Z,4.38
2022-08-03T07:10:22.226Z,4.10
2022-08-03T07:12:55.883Z,3.85
2022-08-03T07:15:53.864Z,3.70
2022-08-03T07:18:10.139Z,3.95
2022-08-03T07:20:36.917Z,3.90
2022-08-03T07:23:03.625Z,3.83
2022-08-03T07:25:30.346Z,4.47
2022-08-03T07:27:56.994Z,3.85
2022-08-03T07:30:24.997Z,4.25
2022-08-03T07:32:51.662Z,4.22
2022-08-03T07:35:24.278Z,4.30
2022-08-03T07:37:54.634Z,4.45
2022-08-03T07:40:22.417Z,3.90
2022-08-03T07:42:52.037Z,4.07
2022-08-03T07:45:21.314Z,3.83
2022-08-03T07:47:53.555Z,4.10
2022-08-03T07:50:20.805Z,4.18
2022-08-03T07:52:49.415Z,3.60
2022-08-03T07:55:17.118Z,4.93
2022-08-03T07:57:43.907Z,3.95
2022-08-03T08:00:19.023Z,4.32
2022-08-03T08:02:46.254Z,3.75
2022-08-03T08:05:14.986Z,3.70
2022-08-03T08:07:42.089Z,4.47
2022-08-03T08:10:10.053Z,4.43
2022-08-03T08:12:38.702Z,3.83
2022-08-03T08:15:06.079Z,4.72
2022-08-03T08:17:43.402Z,4.30
2022-08-03T08:20:12.568Z,3.88
2022-08-03T08:22:39.365Z,3.85
2022-08-03T08:25:07.457Z,3.72
2022-08-03T08:28:31.452Z,4.25
2022-08-03T08:30:22.423Z,3.88
2022-08-03T08:32:49.875Z,3.72
2022-08-03T08:35:17.877Z,3.92
2022-08-03T08:37:51.229Z,3.65
2022-08-03T08:40:20.862Z,3.38
2022-08-03T08:42:58.094Z,3.85
2022-08-03T08:45:25.518Z,3.15
2022-08-03T08:47:59.896Z,3.45
2022-08-03T08:50:28.621Z,3.40
2022-08-03T08:53:00.466Z,3.70
2022-08-03T08:55:29.869Z,3.67
2022-08-03T08:58:20.799Z,4.10
2022-08-03T09:00:48.475Z,3.90
2022-08-03T09:03:29.262Z,3.92
2022-08-03T09:05:56.615Z,3.20
2022-08-03T09:08:23.331Z,3.53
2022-08-03T09:10:50.023Z,2.90
2022-08-03T09:13:16.885Z,3.67
2022-08-03T09:16:01.105Z,3.63
2022-08-03T09:18:30.504Z,3.15
2022-08-03T09:21:30.247Z,3.50
2022-08-03T09:24:04.115Z,3.83
2022-08-03T09:26:33.424Z,3.40
2022-08-03T09:29:14.934Z,2.90
2022-08-03T09:31:45.039Z,2.80
2022-08-03T09:34:17.084Z,2.88
2022-08-03T09:36:50.622Z,3.22
2022-08-03T09:39:42.017Z,2.55
2022-08-03T09:42:17.518Z,2.40
2022-08-03T09:44:50.125Z,3.50
2022-08-03T09:47:36.589Z,3.07
2022-08-03T09:50:06.320Z,3.00
2022-08-03T09:52:48.307Z,2.63
2022-08-03T09:56:33.029Z,2.83
2022-08-03T09:58:09.106Z,3.38
2022-08-03T10:00:56.479Z,2.90
2022-08-03T10:03:24.264Z,2.90
2022-08-03T10:05:53.835Z,3.50
2022-08-03T10:08:23.279Z,2.75
2022-08-03T10:10:54.054Z,3.17
2022-08-03T10:13:22.507Z,3.50
2022-08-03T10:16:24.146Z,2.70
2022-08-03T10:18:36.524Z,2.90
2022-08-03T10:21:04.871Z,2.97
2022-08-03T10:23:35.386Z,2.92
2022-08-03T10:26:04.138Z,2.90
2022-08-03T10:28:57.071Z,3.03
2022-08-03T10:31:24.090Z,2.80
2022-08-03T10:33:53.084Z,3.10
2022-08-03T10:36:24.242Z,2.70
2022-08-03T10:38:56.569Z,3.00
2022-08-03T10:43:59.410Z,2.80
2022-08-03T10:46:27.238Z,3.05
2022-08-03T10:48:54.440Z,2.97
2022-08-03T10:51:21.606Z,3.00
2022-08-03T10:53:55.416Z,3.05
2022-08-03T10:56:53.424Z,2.83
2022-08-03T10:59:46.702Z,3.08
2022-08-03T11:02:15.278Z,2.95
2022-08-03T11:04:42.760Z,3.40
2022-08-03T11:07:25.452Z,2.97
2022-08-03T11:09:56.205Z,3.50
2022-08-03T11:12:30.077Z,2.80
2022-08-03T11:15:05.013Z,3.13
2022-08-03T11:17:33.948Z,3.35
2022-08-03T11:20:13.658Z,3.20
2022-08-03T11:22:54.395Z,2.80
2022-08-03T11:25:53.345Z,2.88
2022-08-03T11:28:30.528Z,2.83
2022-08-03T11:30:57.602Z,3.10
2022-08-03T11:33:30.882Z,2.78
2022-08-03T11:36:03.490Z,3.00
2022-08-03T11:38:30.521Z,3.28
2022-08-03T11:40:57.279Z,2.88
2022-08-03T11:43:31.387Z,2.92
2022-08-03T11:46:28.476Z,2.80
2022-08-03T11:49:09.489Z,3.20
2022-08-03T11:51:38.662Z,2.60
2022-08-03T11:54:06.400Z,3.00
2022-08-03T11:56:47.075Z,3.05
2022-08-03T11:59:18.396Z,2.83
2022-08-03T12:01:47.648Z,2.17
2022-08-03T12:04:16.152Z,2.72
2022-08-03T12:06:58.247Z,2.33
2022-08-03T12:09:24.911Z,3.30
2022-08-03T12:11:59.911Z,2.60
2022-08-03T12:14:48.333Z,3.05
2022-08-03T12:17:15.215Z,2.92
2022-08-03T12:19:44.852Z,2.35
2022-08-03T12:22:11.502Z,2.67
2022-08-03T12:24:46.909Z,2.72
2022-08-03T12:27:24.302Z,2.53
2022-08-03T12:29:58.660Z,2.65
2022-08-03T12:32:26.861Z,2.83
2022-08-03T12:35:00.178Z,2.95
2022-08-03T12:37:27.474Z,2.50
2022-08-03T12:40:02.236Z,2.50
2022-08-03T12:42:32.114Z,2.80
2022-08-03T12:44:58.767Z,2.75
2022-08-03T12:47:25.442Z,2.70
2022-08-03T12:49:53.664Z,2.47
2022-08-03T12:52:22.413Z,2.30
2022-08-03T12:54:56.638Z,2.63
2022-08-03T12:57:23.844Z,2.60
2022-08-03T12:59:53.324Z,2.35
2022-08-03T13:02:25.901Z,2.40
2022-08-03T13:04:54.106Z,2.60
2022-08-03T13:07:22.045Z,2.22
2022-08-03T13:09:51.256Z,2.10
2022-08-03T13:13:11.733Z,2.35
2022-08-03T13:15:39.619Z,2.42
2022-08-03T13:18:16.753Z,2.40
2022-08-03T13:20:44.374Z,2.13
2022-08-03T13:23:15.544Z,2.65
2022-08-03T13:25:55.862Z,2.67
2022-08-03T13:28:23.191Z,2.20
2022-08-03T13:30:49.899Z,2.50
2022-08-03T13:33:16.716Z,2.15
2022-08-03T13:35:43.354Z,2.70
2022-08-03T13:38:10.074Z,2.40
2022-08-03T13:40:41.289Z,2.42
2022-08-03T13:43:08.505Z,2.40
2022-08-03T13:45:35.219Z,2.65
2022-08-03T13:48:01.943Z,2.65
2022-08-03T13:50:29.899Z,2.20
2022-08-03T13:52:58.050Z,2.50
2022-08-03T13:55:25.530Z,2.60
2022-08-03T13:58:02.296Z,2.65
2022-08-03T14:00:33.583Z,2.30
2022-08-03T14:03:12.787Z,2.63
2022-08-03T14:05:41.389Z,2.72
2022-08-03T14:08:08.192Z,2.97
2022-08-03T14:10:36.664Z,2.85
2022-08-03T14:13:04.247Z,2.55
2022-08-03T14:15:31.386Z,2.80
2022-08-03T14:17:58.493Z,2.22
2022-08-03T14:20:38.084Z,2.67
2022-08-03T14:23:07.174Z,2.67
2022-08-03T14:25:44.463Z,2.55
2022-08-03T14:28:19.226Z,2.15
2022-08-03T14:30:46.099Z,2.85
2022-08-03T14:33:12.748Z,2.20
2022-08-03T14:35:39.639Z,2.45
2022-08-03T14:38:06.459Z,2.60
2022-08-03T14:40:33.193Z,2.53
2022-08-03T14:42:59.871Z,2.55
2022-08-03T14:45:26.511Z,2.38
2022-08-03T14:50:28.786Z,2.42
2022-08-03T14:51:30.694Z,2.28
2022-08-03T14:53:58.559Z,2.50
2022-08-03T14:56:25.199Z,2.45
2022-08-03T14:58:51.918Z,2.63
2022-08-03T15:02:02.239Z,3.03
2022-08-03T15:04:06.297Z,2.45
2022-08-03T15:06:32.963Z,2.60
2022-08-03T15:09:21.543Z,2.90
2022-08-03T15:11:46.301Z,2.72
2022-08-03T15:14:13.507Z,2.47
2022-08-03T15:16:41.468Z,2.42
2022-08-03T15:20:03.743Z,2.40
2022-08-03T15:21:56.847Z,2.40
2022-08-03T15:24:27.604Z,2.53
2022-08-03T15:26:54.244Z,3.13
2022-08-03T15:30:07.153Z,2.60
2022-08-03T15:32:09.599Z,2.58
2022-08-03T15:34:37.571Z,2.70
2022-08-03T15:37:15.154Z,2.90
2022-08-03T15:39:59.158Z,2.35
2022-08-03T15:42:30.807Z,2.88
2022-08-03T15:44:57.539Z,3.20
2022-08-03T15:47:24.439Z,2.70
2022-08-03T15:49:51.121Z,2.80
2022-08-03T15:52:17.750Z,2.80
2022-08-03T15:54:44.414Z,3.08
2022-08-03T15:57:12.130Z,2.80
2022-08-03T15:59:38.912Z,2.63
2022-08-03T16:02:05.647Z,3.00
2022-08-03T16:04:32.302Z,2.63
2022-08-03T16:06:58.978Z,2.58
2022-08-03T16:09:42.839Z,2.78
2022-08-03T16:12:16.078Z,2.95
2022-08-03T16:14:52.478Z,2.80
2022-08-03T16:17:20.565Z,2.97
2022-08-03T16:19:47.467Z,2.80
2022-08-03T16:22:14.487Z,2.72
2022-08-03T16:24:42.327Z,3.03
2022-08-03T16:27:36.744Z,2.88
2022-08-03T16:29:55.733Z,3.00
2022-08-03T16:32:22.414Z,2.60
2022-08-03T16:34:49.150Z,2.65
2022-08-03T16:37:37.691Z,2.95
2022-08-03T16:40:03.757Z,3.05
2022-08-03T16:42:30.437Z,2.50
2022-08-03T16:44:57.078Z,2.80
2022-08-03T16:47:25.737Z,2.53
2022-08-03T16:49:55.126Z,3.13
2022-08-03T16:52:23.694Z,2.90
2022-08-03T16:54:53.630Z,2.88
2022-08-03T16:57:55.936Z,2.55
2022-08-03T17:00:11.806Z,3.05
2022-08-03T17:02:43.077Z,2.30
2022-08-03T17:05:15.287Z,2.28
2022-08-03T17:07:46.965Z,2.72
2022-08-03T17:10:21.988Z,2.70
2022-08-03T17:12:53.962Z,2.90
2022-08-03T17:15:58.145Z,2.38
2022-08-03T17:18:15.122Z,2.70
2022-08-03T17:20:42.614Z,2.30
2022-08-03T17:23:34.029Z,2.30
2022-08-03T17:26:04.105Z,2.78
2022-08-03T17:28:48.843Z,2.50
2022-08-03T17:31:22.920Z,2.45
2022-08-03T17:33:57.636Z,2.80
2022-08-03T17:36:41.831Z,2.50
2022-08-03T17:39:17.185Z,2.97
2022-08-03T17:41:50.228Z,2.42
2022-08-03T17:44:35.052Z,5.00
2022-08-03T17:47:04.997Z,5.72
2022-08-03T17:49:33.457Z,4.53
2022-08-03T17:52:17.812Z,2.70
2022-08-03T17:55:56.629Z,3.00
2022-08-03T17:58:03.283Z,2.60
2022-08-03T18:00:51.779Z,2.83
2022-08-03T18:03:28.435Z,2.63
2022-08-03T18:07:15.641Z,2.65
2022-08-03T18:10:03.770Z,2.60
2022-08-03T18:12:40.219Z,2.90
2022-08-03T18:15:13.298Z,2.78
2022-08-03T18:17:55.787Z,2.60
2022-08-03T18:20:32.360Z,2.33
2022-08-03T18:23:04.638Z,2.60
2022-08-03T18:25:45.162Z,2.60
2022-08-03T18:28:14.501Z,2.33
2022-08-03T18:30:54.600Z,2.58
2022-08-03T18:34:18.615Z,2.63
2022-08-03T18:36:21.677Z,2.38
2022-08-03T18:38:51.708Z,2.50
2022-08-03T18:41:32.231Z,2.25
2022-08-03T18:44:46.496Z,2.80
2022-08-03T18:47:51.821Z,2.45
2022-08-03T18:50:19.170Z,2.60
2022-08-03T18:52:53.266Z,2.67
2022-08-03T18:55:35.295Z,2.45
2022-08-03T18:58:17.814Z,2.97
2022-08-03T19:00:54.658Z,2.50
2022-08-03T19:03:43.047Z,4.00
2022-08-03T19:06:23.556Z,6.72
2022-08-03T19:09:04.460Z,4.50
2022-08-03T19:12:11.255Z,3.50
2022-08-03T19:14:28.424Z,2.85
2022-08-03T19:17:09.801Z,2.75
2022-08-03T19:19:43.984Z,2.97
2022-08-03T19:22:16.374Z,2.70
2022-08-03T19:24:45.674Z,2.70
2022-08-03T19:27:13.192Z,3.13
2022-08-03T19:29:58.906Z,2.85
2022-08-03T19:32:30.201Z,2.42
2022-08-03T19:34:59.434Z,2.80
2022-08-03T19:37:33.295Z,2.47
2022-08-03T19:40:12.533Z,2.65
2022-08-03T19:42:42.688Z,3.28
2022-08-03T19:49:57.666Z,2.80
2022-08-03T19:57:00.278Z,3.38
2022-08-03T19:59:29.574Z,3.15
2022-08-03T20:06:40.110Z,3.20
2022-08-03T20:09:09.213Z,3.50
2022-08-03T20:11:44.927Z,3.75
2022-08-03T20:14:20.555Z,3.60
2022-08-03T20:16:52.857Z,3.33
2022-08-03T20:19:19.998Z,3.20
2022-08-03T20:21:48.198Z,3.53
2022-08-03T20:24:24.230Z,3.83
2022-08-03T20:26:57.789Z,3.20
2022-08-03T20:30:06.526Z,3.20
2022-08-03T20:32:34.935Z,3.55
2022-08-03T20:35:01.630Z,3.50
2022-08-03T20:37:30.492Z,3.35
2022-08-03T20:39:57.881Z,3.72
2022-08-03T20:42:24.704Z,3.47
2022-08-03T20:45:05.290Z,3.13
2022-08-03T20:47:50.291Z,3.67
2022-08-03T20:50:17.731Z,3.00
2022-08-03T20:52:49.773Z,3.03
2022-08-03T20:59:51.449Z,3.30
2022-08-03T21:02:28.917Z,3.50
2022-08-03T21:05:03.342Z,3.67
2022-08-03T21:08:05.464Z,3.47
2022-08-03T21:10:29.587Z,3.25
2022-08-03T21:13:17.754Z,3.78
2022-08-03T21:16:06.860Z,3.90
2022-08-03T21:18:54.398Z,3.58
2022-08-03T21:21:50.915Z,3.58
2022-08-03T21:24:19.169Z,3.08
2022-08-03T21:26:47.425Z,3.75
2022-08-03T21:29:16.899Z,3.67
2022-08-03T21:31:43.593Z,3.33
2022-08-03T21:34:10.283Z,3.60
2022-08-03T21:36:37.641Z,3.25
2022-08-03T21:39:08.315Z,3.28
2022-08-03T21:41:36.798Z,3.10
2022-08-03T21:44:04.313Z,3.55
2022-08-03T21:46:35.898Z,3.55
2022-08-03T21:50:02.630Z,3.42
2022-08-03T21:51:52.309Z,3.25
2022-08-03T21:54:21.518Z,3.45
2022-08-03T21:56:50.979Z,3.40
2022-08-03T21:59:19.755Z,3.08
2022-08-03T22:06:19.877Z,3.70
2022-08-03T22:08:47.526Z,3.35
2022-08-03T22:11:14.233Z,3.88
2022-08-03T22:13:43.603Z,3.50
2022-08-03T22:16:12.102Z,4.00
2022-08-03T22:18:41.867Z,3.53
2022-08-03T22:21:10.335Z,3.53
2022-08-03T22:23:45.816Z,3.38
2022-08-03T22:26:34.880Z,3.60
2022-08-03T22:29:06.816Z,3.35
2022-08-03T22:31:58.513Z,3.75
2022-08-03T22:34:26.267Z,3.50
2022-08-03T22:36:57.132Z,3.65
2022-08-03T22:39:27.844Z,3.28
2022-08-03T22:41:56.627Z,3.47
2022-08-03T22:44:23.409Z,3.50
2022-08-03T22:46:50.320Z,3.78
2022-08-03T22:49:18.355Z,3.50
2022-08-03T22:51:45.047Z,3.58
2022-08-03T22:54:12.902Z,3.72
2022-08-03T22:56:39.762Z,3.17
2022-08-03T22:59:39.153Z,3.58
2022-08-03T23:01:56.671Z,3.78
2022-08-03T23:04:24.572Z,3.67
2022-08-03T23:06:51.726Z,3.38
2022-08-03T23:09:21.191Z,3.13
2022-08-03T23:11:48.373Z,3.15
2022-08-03T23:14:17.099Z,3.70
2022-08-03T23:16:45.614Z,3.72
2022-08-03T23:19:17.448Z,3.60
2022-08-03T23:22:02.976Z,3.28
2022-08-03T23:24:33.803Z,3.35
2022-08-03T23:27:03.689Z,3.67
2022-08-03T23:29:31.103Z,3.63
2022-08-03T23:31:58.451Z,3.20
2022-08-03T23:34:44.851Z,3.17
2022-08-03T23:37:13.553Z,3.60
2022-08-03T23:39:40.461Z,3.33
2022-08-03T23:42:07.348Z,3.70
2022-08-03T23:44:34.606Z,4.03
2022-08-03T23:47:01.318Z,3.58
2022-08-03T23:49:27.971Z,3.15
2022-08-03T23:52:03.479Z,4.00
2022-08-03T23:54:47.422Z,3.65
2022-08-03T23:57:38.643Z,3.30
